Time;durP1;ratioP1;P1;durP2;ratioP2;P2;SDS_P1;SDS_P2;PMS_P1;PMS_P2;Temp;Humidity;BMP_temperature;BMP_pressure;BME280_temperature;BME280_humidity;BME280_pressure;Samples;Min_cycle;Max_cycle;Signal;HPM_P1;HPM_P2
2021/08/27 05:49:11;;;;;;;22.08;10.35;;;;;;;15.73;89.12;101860.81;4894470;29;20048;-84
2021/08/27 05:51:37;;;;;;;17.95;10.02;;;;;;;15.72;89.24;101855.59;4892507;29;20040;-85
2021/08/27 05:54:02;;;;;;;20.85;11.07;;;;;;;15.80;89.48;101867.22;4887259;29;20039;-84
2021/08/27 05:56:28;;;;;;;16.70;9.90;;;;;;;15.81;89.02;101863.47;4896019;29;20506;-83
2021/08/27 05:58:53;;;;;;;20.25;11.65;;;;;;;15.72;88.98;101850.19;4877821;29;20024;-85
2021/08/27 06:01:19;;;;;;;18.67;11.02;;;;;;;15.82;89.29;101875.16;4874522;29;20036;-85
2021/08/27 06:03:45;;;;;;;24.98;12.93;;;;;;;15.79;89.41;101870.09;4884404;29;20354;-85
2021/08/27 06:06:10;;;;;;;25.95;12.13;;;;;;;15.79;89.58;101887.22;4884063;29;21741;-85
2021/08/27 06:08:36;;;;;;;22.77;11.38;;;;;;;15.67;89.64;101864.25;4889251;29;20091;-86
2021/08/27 06:11:02;;;;;;;24.23;11.55;;;;;;;15.74;89.81;101875.22;4892782;29;20036;-85
2021/08/27 06:13:29;;;;;;;20.98;11.40;;;;;;;15.78;90.08;101895.53;4906096;29;20082;-86
2021/08/27 06:15:55;;;;;;;23.85;11.95;;;;;;;15.81;89.95;101895.19;4907886;29;20099;-85
2021/08/27 06:18:21;;;;;;;25.33;12.15;;;;;;;15.86;89.98;101886.50;4894049;29;20032;-85
2021/08/27 06:20:50;;;;;;;25.42;13.32;;;;;;;15.99;89.66;101903.00;4912996;29;20047;-84
2021/08/27 06:23:16;;;;;;;20.55;11.55;;;;;;;16.07;89.74;101916.47;4892606;29;20511;-85
2021/08/27 06:25:42;;;;;;;23.75;12.43;;;;;;;16.06;89.66;101909.34;4878178;29;20101;-85
2021/08/27 06:28:07;;;;;;;24.88;13.07;;;;;;;16.14;89.80;101913.84;4877265;29;20122;-85
2021/08/27 06:30:33;;;;;;;22.70;13.02;;;;;;;16.25;89.61;101932.44;4879443;29;20039;-84
2021/08/27 06:32:59;;;;;;;24.48;12.70;;;;;;;16.24;89.46;101928.00;4881712;29;20028;-85
2021/08/27 06:35:25;;;;;;;24.25;12.95;;;;;;;16.30;89.44;101930.00;4868442;29;20506;-84
2021/08/27 06:40:36;;;;;;;24.67;12.20;;;;;;;16.39;89.44;101928.03;4909092;29;20698;-85
2021/08/27 06:43:02;;;;;;;23.95;12.77;;;;;;;16.32;89.14;101917.06;4893198;29;20028;-84
2021/08/27 06:45:27;;;;;;;23.15;13.38;;;;;;;16.27;89.50;101927.63;4858163;29;20043;-85
2021/08/27 06:47:53;;;;;;;23.67;12.18;;;;;;;16.28;90.14;101929.34;4876898;29;20035;-85
2021/08/27 06:50:19;;;;;;;26.70;13.05;;;;;;;16.33;89.90;101939.66;4905539;29;20115;-84
2021/08/27 06:52:46;;;;;;;24.88;12.90;;;;;;;16.36;89.88;101931.13;4877513;29;20155;-85
2021/08/27 06:55:12;;;;;;;25.65;13.57;;;;;;;16.39;89.66;101928.88;4894151;29;20442;-85
2021/08/27 06:57:37;;;;;;;26.33;13.50;;;;;;;16.41;89.39;101932.25;4865913;29;20135;-85
2021/08/27 07:00:04;;;;;;;26.17;13.35;;;;;;;16.40;89.63;101930.53;4878788;29;20024;-85
2021/08/27 07:02:29;;;;;;;27.40;13.10;;;;;;;16.47;89.32;101946.94;4878204;29;20518;-85
2021/08/27 07:04:55;;;;;;;28.25;13.32;;;;;;;16.40;89.09;101933.25;4866787;29;20036;-85
2021/08/27 07:07:21;;;;;;;32.00;14.95;;;;;;;16.44;89.35;101933.75;4879485;29;20036;-86
2021/08/27 07:09:46;;;;;;;27.35;12.98;;;;;;;16.48;89.39;101932.34;4894207;29;20016;-86
2021/08/27 07:12:13;;;;;;;27.60;13.05;;;;;;;16.22;89.60;101898.34;4875474;29;20484;-85
2021/08/27 07:14:40;;;;;;;29.02;14.77;;;;;;;16.51;89.90;101939.25;4887423;29;20037;-85
2021/08/27 07:17:06;;;;;;;31.00;14.10;;;;;;;16.49;89.94;101943.03;4879604;29;20507;-85
2021/08/27 07:19:31;;;;;;;29.30;15.20;;;;;;;16.47;90.23;101931.50;4883737;29;20048;-85
2021/08/27 07:21:57;;;;;;;27.73;12.70;;;;;;;16.56;89.91;101939.56;4864592;29;20090;-84
2021/08/27 07:24:23;;;;;;;27.85;14.07;;;;;;;16.51;90.20;101948.25;4864076;29;20044;-84
2021/08/27 07:26:48;;;;;;;30.58;14.40;;;;;;;16.44;90.40;101942.72;4881332;29;20063;-83
2021/08/27 07:29:14;;;;;;;31.17;14.10;;;;;;;16.44;90.52;101948.16;4883451;29;20028;-84
2021/08/27 07:31:39;;;;;;;31.27;14.93;;;;;;;16.52;90.45;101949.94;4897988;29;20395;-83
2021/08/27 07:34:05;;;;;;;32.58;15.43;;;;;;;16.54;90.40;101934.31;4883169;29;20024;-83
2021/08/27 07:36:31;;;;;;;23.42;12.73;;;;;;;16.57;90.60;101943.97;4881735;29;20035;-84
2021/08/27 07:38:56;;;;;;;30.33;14.25;;;;;;;16.62;90.63;101947.81;4898388;29;20067;-83
2021/08/27 07:41:22;;;;;;;29.25;14.30;;;;;;;16.69;90.12;101947.88;4864490;29;20492;-84
2021/08/27 07:43:47;;;;;;;37.47;14.38;;;;;;;16.74;90.30;101945.44;4898322;29;20115;-83
2021/08/27 07:46:13;;;;;;;29.02;14.68;;;;;;;16.77;90.03;101949.66;4895326;29;20103;-84
2021/08/27 07:48:39;;;;;;;28.17;14.70;;;;;;;16.76;90.03;101954.25;4912775;29;20024;-82
2021/08/27 07:51:04;;;;;;;28.13;15.02;;;;;;;16.79;nan;101955.78;4878545;29;20036;-83
2021/08/27 07:53:31;;;;;;;28.40;13.50;;;;;;;16.93;89.84;101949.50;4897219;29;20079;-84
2021/08/27 07:55:56;;;;;;;26.42;13.27;;;;;;;17.05;89.06;101956.16;4897619;29;20119;-84
2021/08/27 07:58:22;;;;;;;27.20;14.80;;;;;;;16.94;89.24;101924.03;4889135;29;20028;-83
2021/08/27 08:00:48;;;;;;;28.00;14.05;;;;;;;17.08;89.25;101954.94;4881985;29;20095;-84
2021/08/27 08:03:14;;;;;;;27.88;14.65;;;;;;;17.05;89.56;101950.72;4869288;29;20036;-84
2021/08/27 08:05:40;;;;;;;27.13;13.25;;;;;;;17.11;89.25;101949.09;4896063;29;20028;-83
2021/08/27 08:08:05;;;;;;;26.30;13.60;;;;;;;17.13;88.96;101944.34;4906529;29;20254;-83
2021/08/27 08:10:31;;;;;;;27.25;12.88;;;;;;;17.21;88.26;101952.38;4894930;29;20039;-84
2021/08/27 08:12:57;;;;;;;26.13;13.30;;;;;;;17.24;87.64;101946.56;4902572;29;20592;-84
2021/08/27 08:15:26;;;;;;;22.33;12.23;;;;;;;17.27;87.87;101954.31;4893960;29;20373;-83
2021/08/27 08:17:53;;;;;;;23.38;12.35;;;;;;;17.24;87.97;101956.59;4906065;29;20122;-84
2021/08/27 08:20:19;;;;;;;26.25;13.15;;;;;;;17.38;87.63;101968.44;4883677;29;20131;-82
2021/08/27 08:22:44;;;;;;;21.80;12.55;;;;;;;17.34;87.23;101960.69;4881233;29;20058;-84
2021/08/27 08:25:10;;;;;;;20.63;11.35;;;;;;;17.23;87.34;101963.06;4856403;29;20032;-84
2021/08/27 08:27:36;;;;;;;23.08;11.70;;;;;;;17.12;87.18;101953.50;4880179;29;20042;-84
2021/08/27 08:30:03;;;;;;;22.17;11.55;;;;;;;17.25;86.90;101974.56;4890187;29;20024;-84
2021/08/27 08:32:29;;;;;;;19.63;11.07;;;;;;;17.24;86.75;101978.34;4893503;29;20403;-84
2021/08/27 08:34:55;;;;;;;20.73;11.18;;;;;;;17.22;86.71;101974.94;4898444;29;20100;-84
2021/08/27 08:37:20;;;;;;;21.33;10.80;;;;;;;17.13;86.72;101956.03;4888818;29;20032;-84
2021/08/27 08:39:47;;;;;;;22.15;11.38;;;;;;;17.18;86.87;101979.94;4900538;29;20040;-84
2021/08/27 08:42:14;;;;;;;21.05;11.23;;;;;;;17.25;86.62;101985.44;4883783;29;20043;-84
2021/08/27 08:44:40;;;;;;;22.27;10.93;;;;;;;17.25;86.43;101985.44;4892033;29;20025;-84
2021/08/27 08:47:08;;;;;;;18.27;9.77;;;;;;;17.31;86.15;101987.41;4903088;29;20039;-85
2021/08/27 08:49:35;;;;;;;22.20;11.43;;;;;;;17.32;86.03;101986.38;4903720;29;20061;-85
2021/08/27 08:52:02;;;;;;;21.23;10.15;;;;;;;17.31;86.17;101979.25;4922564;29;20036;-84
2021/08/27 08:54:29;;;;;;;19.50;11.05;;;;;;;17.33;86.50;101991.63;4883642;29;20024;-85
2021/08/27 08:56:55;;;;;;;20.02;10.05;;;;;;;17.41;86.05;101984.38;4889671;29;20032;-85
2021/08/27 08:59:21;;;;;;;17.80;10.20;;;;;;;17.50;85.37;101975.94;4897655;29;20024;-84
2021/08/27 09:01:47;;;;;;;18.95;10.40;;;;;;;17.49;84.83;101981.53;4891874;29;20032;-84
2021/08/27 09:04:14;;;;;;;18.98;10.63;;;;;;;17.55;85.17;101983.50;4902699;29;20603;-85
2021/08/27 09:06:39;;;;;;;20.02;11.15;;;;;;;17.59;84.96;101979.34;4898702;29;20472;-85
2021/08/27 09:09:05;;;;;;;20.15;10.23;;;;;;;17.73;84.61;101977.63;4885522;29;20111;-85
2021/08/27 09:11:31;;;;;;;20.75;10.60;;;;;;;17.75;84.58;101981.00;4878208;29;20039;-85
2021/08/27 09:14:02;;;;;;;18.67;9.77;;;;;;;17.74;84.54;101977.44;4903941;29;20111;-85
2021/08/27 09:16:30;;;;;;;18.35;10.73;;;;;;;17.76;84.25;101978.09;4877284;29;20064;-85
2021/08/27 09:18:57;;;;;;;17.23;9.90;;;;;;;17.74;84.65;101980.16;4875891;29;20063;-85
2021/08/27 09:21:48;;;;;;;16.90;9.70;;;;;;;17.94;84.76;101979.53;4885484;29;20059;-85
2021/08/27 09:24:22;;;;;;;17.75;9.60;;;;;;;18.12;84.22;101981.78;4882337;29;20028;-84
2021/08/27 09:26:51;;;;;;;16.63;9.18;;;;;;;18.17;83.00;101976.59;4898171;29;20059;-84
2021/08/27 09:29:31;;;;;;;16.70;9.30;;;;;;;18.21;82.31;101975.19;4895095;29;20042;-85
2021/08/27 09:31:57;;;;;;;16.48;10.50;;;;;;;18.14;82.12;101977.84;4894817;29;20032;-84
2021/08/27 09:34:27;;;;;;;18.17;10.52;;;;;;;18.18;82.20;101975.59;4878878;29;20032;-84
2021/08/27 09:36:57;;;;;;;17.13;10.32;;;;;;;18.23;81.64;101973.09;4882618;29;20039;-84
2021/08/27 09:39:32;;;;;;;16.85;9.73;;;;;;;18.21;82.24;101980.63;4897403;29;20028;-84
2021/08/27 09:41:57;;;;;;;18.05;9.73;;;;;;;18.17;81.74;101982.06;4879872;29;20062;-84
2021/08/27 09:44:23;;;;;;;16.25;9.43;;;;;;;18.21;82.14;101975.19;4877414;29;20073;-84
2021/08/27 09:46:49;;;;;;;16.77;9.43;;;;;;;18.33;81.83;101979.03;4890352;29;20032;-85
2021/08/27 09:49:35;;;;;;;17.55;10.45;;;;;;;18.40;81.29;101984.56;4898524;29;20080;-84
2021/08/27 09:52:02;;;;;;;17.05;9.88;;;;;;;18.51;80.82;101980.44;4866011;29;20044;-84
2021/08/27 09:54:33;;;;;;;17.40;10.27;;;;;;;18.55;80.46;101990.75;4874171;29;20123;-83
2021/08/27 09:57:00;;;;;;;18.45;10.10;;;;;;;18.44;80.51;101986.69;4900654;29;20056;-84
2021/08/27 09:59:50;;;;;;;18.55;10.55;;;;;;;18.44;80.87;101992.13;4892753;29;20039;-84
2021/08/27 10:02:36;;;;;;;17.45;10.23;;;;;;;18.56;80.42;101988.84;4892359;29;20491;-84
2021/08/27 10:05:02;;;;;;;18.02;10.00;;;;;;;18.57;79.99;101985.91;4885668;29;20047;-85
2021/08/27 10:07:34;;;;;;;17.55;10.73;;;;;;;18.64;80.18;101999.59;4881476;29;20226;-85
2021/08/27 10:10:01;;;;;;;16.80;9.55;;;;;;;18.74;80.02;101997.38;4893801;29;20119;-84
2021/08/27 10:12:28;;;;;;;15.55;9.55;;;;;;;18.74;79.72;101983.75;4874168;29;20499;-85
2021/08/27 10:14:55;;;;;;;19.50;9.90;;;;;;;18.73;79.32;101979.31;4891119;29;20043;-84
2021/08/27 10:17:20;;;;;;;19.05;10.45;;;;;;;18.71;79.65;101981.41;4871985;29;20032;-84
2021/08/27 10:19:46;;;;;;;19.63;10.55;;;;;;;18.82;79.82;101978.16;4859029;29;20039;-84
2021/08/27 10:22:12;;;;;;;19.27;10.70;;;;;;;19.02;79.02;101994.59;4897050;29;20061;-84
2021/08/27 10:24:38;;;;;;;16.75;11.07;;;;;;;19.15;78.37;101996.56;4878739;29;20633;-84
2021/08/27 10:27:07;;;;;;;17.85;9.75;;;;;;;19.29;77.54;101987.41;4867710;29;20024;-84
2021/08/27 10:29:33;;;;;;;16.20;9.40;;;;;;;19.41;76.58;101995.00;4887705;29;20059;-85
2021/08/27 10:31:58;;;;;;;20.38;10.70;;;;;;;19.29;76.79;101973.78;4878585;29;20036;-85
2021/08/27 10:34:43;;;;;;;18.70;11.52;;;;;;;19.60;76.21;101999.66;4871449;29;20028;-84
2021/08/27 10:37:10;;;;;;;18.85;10.75;;;;;;;19.64;76.04;101997.38;4871112;29;20527;-85
2021/08/27 10:39:41;;;;;;;18.23;10.70;;;;;;;19.92;75.45;101998.09;4888655;29;20522;-84
2021/08/27 10:42:08;;;;;;;18.23;10.80;;;;;;;20.06;74.97;101990.78;4866470;29;20052;-84
2021/08/27 10:44:51;;;;;;;17.67;10.82;;;;;;;20.31;74.07;101998.34;4870374;29;20033;-85
2021/08/27 10:47:18;;;;;;;19.08;10.57;;;;;;;20.80;73.04;101997.06;4899079;29;20087;-85
2021/08/27 10:49:46;;;;;;;17.13;10.60;;;;;;;21.12;72.49;102008.09;4880769;29;20028;-86
2021/08/27 10:52:36;;;;;;;19.42;11.13;;;;;;;21.33;71.85;102009.69;4873427;29;20126;-85
2021/08/27 10:55:03;;;;;;;17.35;10.50;;;;;;;21.35;70.90;102002.94;4884927;29;20037;-85
2021/08/27 10:57:30;;;;;;;17.92;10.10;;;;;;;21.39;71.04;102003.41;4877342;29;20440;-85
2021/08/27 10:59:59;;;;;;;16.77;9.68;;;;;;;21.27;70.79;101992.25;4894588;29;20020;-85
2021/08/27 11:02:28;;;;;;;;;;;;;;;21.45;71.17;101999.78;4893711;29;20038;-85
2021/08/27 11:04:54;;;;;;;17.00;9.70;;;;;;;21.72;70.12;102001.34;4874808;29;19919;-85
2021/08/27 11:07:27;;;;;;;17.75;10.93;;;;;;;21.92;69.17;101997.63;4874186;29;20591;-87
2021/08/27 11:10:07;;;;;;;14.63;9.70;;;;;;;22.01;68.92;101993.53;4870647;29;20441;-87
2021/08/27 11:12:33;;;;;;;16.63;10.73;;;;;;;22.02;68.47;101999.88;4873314;29;20499;-85
2021/08/27 11:15:29;;;;;;;18.45;11.10;;;;;;;21.92;68.32;101995.72;4871006;29;20472;-84
2021/08/27 11:18:24;;;;;;;17.73;10.60;;;;;;;21.95;68.41;101991.69;4875966;29;20035;-86
2021/08/27 11:20:51;;;;;;;16.85;9.18;;;;;;;22.00;68.14;101999.25;4867982;29;20043;-88
2021/08/27 11:23:17;;;;;;;17.30;9.85;;;;;;;22.31;68.55;101988.28;4882046;29;20039;-86
2021/08/27 11:25:58;;;;;;;18.25;12.25;;;;;;;22.60;66.57;101996.88;4871746;29;20032;-86
2021/08/27 11:28:25;;;;;;;17.50;10.65;;;;;;;22.69;66.75;101981.81;4892822;29;20025;-86
2021/08/27 11:31:04;;;;;;;20.90;11.30;;;;;;;22.72;66.13;101983.25;4883032;29;20047;-86
2021/08/27 11:33:45;;;;;;;17.48;10.65;;;;;;;22.74;67.05;101979.22;4897109;29;20028;-86
2021/08/27 11:36:17;;;;;;;18.52;11.32;;;;;;;22.89;66.64;101978.00;4906000;29;20084;-85
2021/08/27 11:38:42;;;;;;;20.10;11.50;;;;;;;23.14;65.14;101970.56;4877884;29;20094;-85
2021/08/27 11:41:08;;;;;;;20.77;11.60;;;;;;;23.31;64.36;101973.50;4886334;29;20025;-83
2021/08/27 11:43:37;;;;;;;18.80;11.07;;;;;;;22.97;64.88;101981.31;4876483;29;20540;-82
2021/08/27 11:46:04;;;;;;;19.10;11.25;;;;;;;23.12;65.22;101978.19;4902720;29;20039;-83
2021/08/27 11:48:37;;;;;;;17.67;10.45;;;;;;;23.36;65.09;101978.31;4885529;29;20411;-82
2021/08/27 11:51:10;;;;;;;17.92;11.15;;;;;;;23.44;64.46;101975.22;4897726;29;20120;-83
2021/08/27 11:53:36;;;;;;;21.48;11.77;;;;;;;23.57;63.85;101979.69;4886910;29;20052;-84
2021/08/27 11:56:01;;;;;;;21.02;12.48;;;;;;;23.64;63.02;101974.97;4908046;29;20024;-83
2021/08/27 11:58:44;;;;;;;20.17;11.63;;;;;;;23.92;63.13;101991.69;4890944;29;20048;-82
2021/08/27 12:01:29;;;;;;;21.27;11.18;;;;;;;24.14;62.15;101986.47;4907009;29;20092;-83
2021/08/27 12:03:55;;;;;;;18.25;10.85;;;;;;;24.15;62.46;101979.03;4885346;29;20045;-83
2021/08/27 12:06:22;;;;;;;18.58;10.90;;;;;;;24.22;63.35;101988.03;4886626;29;20028;-83
2021/08/27 12:08:48;;;;;;;18.70;12.32;;;;;;;24.23;62.50;101986.09;4881133;29;20115;-83
2021/08/27 12:11:34;;;;;;;17.42;11.35;;;;;;;24.62;61.38;101992.03;4876903;29;20055;-83
2021/08/27 12:14:00;;;;;;;20.40;10.50;;;;;;;24.84;59.95;101979.31;4904489;29;20098;-82
2021/08/27 12:16:26;;;;;;;18.80;11.20;;;;;;;24.85;60.19;101985.63;4884358;29;20032;-83
2021/08/27 12:18:53;;;;;;;17.30;11.07;;;;;;;25.19;59.26;101983.91;4901558;29;20020;-82
2021/08/27 12:21:29;;;;;;;19.30;11.23;;;;;;;25.39;59.19;101987.09;4893643;29;20503;-82
2021/08/27 12:24:04;;;;;;;17.38;10.82;;;;;;;25.62;57.84;101991.66;4898961;29;20047;-82
2021/08/27 12:26:32;;;;;;;16.42;10.27;;;;;;;25.50;56.94;101990.03;4889948;29;20028;-83
2021/08/27 12:28:59;;;;;;;19.10;12.13;;;;;;;25.53;57.01;101986.78;4875487;29;20238;-83
2021/08/27 12:31:38;;;;;;;17.80;11.07;;;;;;;25.63;56.10;101978.72;4876385;29;20579;-82
2021/08/27 12:34:04;;;;;;;20.10;12.57;;;;;;;25.71;55.30;101977.50;4916778;29;20047;-83
2021/08/27 12:36:37;;;;;;;19.38;11.93;;;;;;;25.76;55.62;101969.31;4908972;29;20035;-83
2021/08/27 12:39:03;;;;;;;16.33;9.43;;;;;;;25.76;55.99;101985.84;4883768;29;20028;-83
2021/08/27 12:41:29;;;;;;;16.98;9.95;;;;;;;25.93;55.43;101974.88;4902288;29;20024;-82
2021/08/27 12:44:10;;;;;;;16.92;10.68;;;;;;;26.19;53.78;101974.22;4914605;29;20028;-83
2021/08/27 12:46:36;;;;;;;19.88;12.25;;;;;;;26.34;53.39;101975.56;4900937;29;20100;-82
2021/08/27 12:49:15;;;;;;;24.83;15.57;;;;;;;26.36;53.77;101973.34;4889616;29;20028;-82
2021/08/27 12:51:42;;;;;;;20.00;11.23;;;;;;;26.64;53.31;101976.03;4889710;29;20052;-82
2021/08/27 12:54:08;;;;;;;15.57;10.68;;;;;;;26.94;51.75;101969.28;4908055;29;20028;-82
2021/08/27 12:56:34;;;;;;;16.25;10.15;;;;;;;27.48;50.07;101979.59;4902219;29;20067;-83
2021/08/27 12:59:14;;;;;;;16.60;10.23;;;;;;;27.70;48.91;101965.72;4885620;29;20061;-83
2021/08/27 13:01:40;;;;;;;13.88;8.98;;;;;;;27.90;48.70;101976.16;4926172;29;20044;-83
2021/08/27 13:04:05;;;;;;;13.73;8.07;;;;;;;27.83;47.85;101970.84;4884436;29;20027;-82
2021/08/27 13:06:38;;;;;;;16.30;9.65;;;;;;;27.45;47.70;101969.91;4898514;29;20068;-83
2021/08/27 13:09:05;;;;;;;13.30;8.80;;;;;;;27.11;49.53;101970.03;4899395;29;20031;-83
2021/08/27 13:11:56;;;;;;;13.10;8.73;;;;;;;27.12;49.58;101954.28;4901205;29;20050;-85
2021/08/27 13:14:26;;;;;;;13.10;8.60;;;;;;;26.78;50.92;101961.84;4894319;29;20391;-85
2021/08/27 13:17:05;;;;;;;17.35;7.75;;;;;;;26.78;50.56;101956.34;4898338;29;20297;-85
2021/08/27 13:19:49;;;;;;;13.35;9.57;;;;;;;27.10;49.44;101954.56;4909235;29;20033;-85
2021/08/27 13:22:16;;;;;;;14.27;7.65;;;;;;;27.18;48.70;101954.13;4896229;29;20071;-84
2021/08/27 13:24:42;;;;;;;12.68;8.13;;;;;;;26.83;48.86;101951.72;4898810;29;20039;-85
2021/08/27 13:27:07;;;;;;;13.50;9.55;;;;;;;27.03;49.53;101951.16;4877512;29;20483;-86
2021/08/27 13:29:33;;;;;;;12.40;7.45;;;;;;;27.27;49.00;101950.91;4904683;29;20027;-86
2021/08/27 13:31:59;;;;;;;15.25;7.22;;;;;;;27.65;48.58;101951.84;4875391;29;20023;-86
2021/08/27 13:34:24;;;;;;;12.48;6.63;;;;;;;27.86;47.42;101948.19;4874879;29;20551;-86
2021/08/27 13:36:50;;;;;;;11.52;7.35;;;;;;;27.77;46.29;101930.41;4861480;29;20118;-86
2021/08/27 13:39:16;;;;;;;11.48;8.20;;;;;;;27.86;45.83;101933.56;4880490;29;20059;-86
2021/08/27 13:41:43;;;;;;;11.15;7.95;;;;;;;28.09;44.94;101949.78;4873994;29;20028;-86
2021/08/27 13:44:09;;;;;;;11.00;6.80;;;;;;;28.14;44.62;101947.06;4871867;29;20032;-86
2021/08/27 13:46:37;;;;;;;10.25;6.82;;;;;;;28.17;44.86;101943.75;4882862;29;20131;-85
2021/08/27 13:49:07;;;;;;;10.65;6.22;;;;;;;28.51;45.69;101948.16;4875084;29;20464;-86
2021/08/27 13:51:33;;;;;;;12.68;7.43;;;;;;;28.63;43.85;101946.00;4880588;29;20024;-86
2021/08/27 13:54:04;;;;;;;7.95;6.43;;;;;;;28.60;44.75;101952.91;4888818;29;20028;-86
2021/08/27 13:56:33;;;;;;;13.68;6.68;;;;;;;28.64;45.15;101942.16;4894611;29;20058;-85
2021/08/27 13:59:01;;;;;;;10.40;6.32;;;;;;;28.66;44.19;101948.25;4899588;29;20035;-85
2021/08/27 14:01:30;;;;;;;8.52;6.43;;;;;;;28.88;43.17;101946.13;4874422;29;20054;-86
2021/08/27 14:03:56;;;;;;;10.27;6.13;;;;;;;28.89;42.68;101938.66;4897524;29;20028;-85
2021/08/27 14:06:23;;;;;;;10.65;6.68;;;;;;;29.03;42.14;101955.59;4883989;29;20500;-84
2021/08/27 14:08:48;;;;;;;9.02;6.60;;;;;;;29.07;41.94;101940.97;4902024;29;20028;-84
2021/08/27 14:11:14;;;;;;;10.50;8.02;;;;;;;29.24;41.40;101943.53;4899082;29;20496;-84
2021/08/27 14:13:40;;;;;;;8.35;5.65;;;;;;;29.32;40.63;101939.38;4907224;29;20032;-84
2021/08/27 14:16:07;;;;;;;8.82;6.03;;;;;;;29.12;41.51;101941.00;4900252;29;20028;-83
2021/08/27 14:18:33;;;;;;;8.50;5.57;;;;;;;29.20;40.44;101934.09;4879447;29;20028;-84
2021/08/27 14:20:59;;;;;;;6.68;5.35;;;;;;;29.43;40.11;101931.94;4914672;29;20035;-83
2021/08/27 14:23:24;;;;;;;11.50;5.55;;;;;;;29.78;39.14;101937.53;4887664;29;20024;-84
2021/08/27 14:25:50;;;;;;;8.38;5.47;;;;;;;29.97;37.73;101923.94;4873631;29;20031;-84
2021/08/27 14:28:16;;;;;;;8.00;5.13;;;;;;;30.15;37.25;101928.09;4878859;29;20031;-83
2021/08/27 14:30:41;;;;;;;10.85;6.22;;;;;;;30.07;37.53;101931.44;4903320;29;20816;-84
2021/08/27 14:33:07;;;;;;;8.80;5.63;;;;;;;30.01;38.30;101924.22;4902211;29;20033;-84
2021/08/27 14:35:33;;;;;;;12.95;7.70;;;;;;;30.21;39.21;101935.28;4886078;29;20033;-83
2021/08/27 14:37:59;;;;;;;9.23;5.80;;;;;;;30.33;38.48;101931.44;4889244;29;20028;-84
2021/08/27 14:40:25;;;;;;;8.20;5.78;;;;;;;30.53;37.26;101939.69;4881843;29;20032;-83
2021/08/27 14:42:51;;;;;;;8.23;5.28;;;;;;;30.72;36.09;101931.56;4870726;29;20028;-83
2021/08/27 14:45:16;;;;;;;16.70;11.85;;;;;;;30.80;35.70;101916.25;4888402;29;20036;-83
2021/08/27 14:47:42;;;;;;;9.82;6.60;;;;;;;30.92;35.65;101919.59;4902956;29;20035;-83
2021/08/27 14:50:09;;;;;;;6.93;5.05;;;;;;;30.82;35.00;101927.94;4908058;29;20032;-83
2021/08/27 14:52:35;;;;;;;10.63;6.03;;;;;;;31.06;36.27;101926.16;4904989;29;20028;-83
2021/08/27 14:55:01;;;;;;;7.93;5.40;;;;;;;31.23;34.71;101909.13;4899628;29;20020;-84
2021/08/27 14:57:28;;;;;;;8.65;6.05;;;;;;;31.35;35.50;101919.88;4887984;29;20051;-84
2021/08/27 14:59:53;;;;;;;9.52;5.88;;;;;;;31.70;33.88;101915.19;4902885;29;20079;-83
2021/08/27 15:02:19;;;;;;;8.60;5.03;;;;;;;31.64;34.86;101919.97;4880584;29;20127;-83
2021/08/27 15:04:44;;;;;;;10.85;5.30;;;;;;;31.64;34.53;101924.72;4898516;29;20404;-83
2021/08/27 15:07:10;;;;;;;7.57;4.90;;;;;;;31.82;33.88;101915.66;4874848;29;20036;-83
2021/08/27 15:09:37;;;;;;;9.60;5.68;;;;;;;31.88;33.70;101922.81;4882882;29;20035;-83
2021/08/27 15:12:03;;;;;;;10.07;5.60;;;;;;;31.79;33.39;101921.81;4901376;29;20436;-83
2021/08/27 15:14:28;;;;;;;8.45;5.60;;;;;;;32.05;33.23;101914.09;4886523;29;20039;-83
2021/08/27 15:16:54;;;;;;;9.45;5.05;;;;;;;32.12;32.50;101925.69;4901655;29;20408;-84
2021/08/27 15:19:23;;;;;;;7.75;5.28;;;;;;;32.21;31.22;101927.88;4885614;29;20418;-84
2021/08/27 15:21:50;;;;;;;11.93;5.10;;;;;;;32.12;31.88;101920.13;4891213;29;20065;-84
2021/08/27 15:24:16;;;;;;;8.38;4.90;;;;;;;32.11;32.87;101912.09;4883569;29;20092;-83
2021/08/27 15:26:42;;;;;;;7.18;5.22;;;;;;;31.88;32.95;101922.81;4883769;29;20108;-83
2021/08/27 15:29:08;;;;;;;10.07;4.90;;;;;;;32.14;33.44;101923.44;4895011;29;20657;-84
2021/08/27 15:31:35;;;;;;;8.75;4.72;;;;;;;32.49;31.27;101918.66;4901901;29;20060;-83
2021/08/27 15:34:01;;;;;;;8.30;4.78;;;;;;;32.48;31.42;101916.19;4903128;29;20027;-84
2021/08/27 15:36:26;;;;;;;7.05;4.93;;;;;;;32.54;31.28;101914.97;4888251;29;20028;-84
2021/08/27 15:38:52;;;;;;;10.23;5.00;;;;;;;32.61;30.86;101921.03;4881445;29;20024;-84
2021/08/27 15:41:18;;;;;;;8.90;4.68;;;;;;;32.65;30.97;101910.94;4896369;29;20043;-84
2021/08/27 15:43:43;;;;;;;7.35;4.63;;;;;;;32.89;30.79;101915.66;4895031;29;20067;-84
2021/08/27 15:46:09;;;;;;;6.97;4.70;;;;;;;32.84;31.02;101922.13;4864223;29;20033;-84
2021/08/27 15:48:34;;;;;;;9.57;5.15;;;;;;;32.94;30.79;101923.94;4894333;29;20515;-84
2021/08/27 15:51:00;;;;;;;7.22;4.72;;;;;;;33.06;30.88;101932.75;4900844;29;20032;-84
2021/08/27 15:53:27;;;;;;;10.60;4.45;;;;;;;33.10;29.94;101910.66;4901124;29;20058;-85
2021/08/27 15:55:53;;;;;;;8.50;5.30;;;;;;;33.01;29.96;101914.13;4881036;29;20032;-84
2021/08/27 15:58:18;;;;;;;6.50;4.55;;;;;;;33.25;28.83;101924.38;4873909;29;20407;-84
2021/08/27 16:00:45;;;;;;;7.00;4.50;;;;;;;33.22;29.38;101914.66;4871561;29;20025;-84
2021/08/27 16:03:11;;;;;;;8.18;4.50;;;;;;;33.18;28.48;101916.38;4902841;29;20028;-83
2021/08/27 16:05:37;;;;;;;8.55;4.43;;;;;;;33.11;28.31;101918.75;4893613;29;20079;-85
2021/08/27 16:08:03;;;;;;;7.75;4.22;;;;;;;33.04;29.10;101918.28;4884770;29;20531;-85
2021/08/27 16:10:29;;;;;;;8.40;4.80;;;;;;;33.06;28.52;101922.41;4906125;29;20020;-85
2021/08/27 16:12:54;;;;;;;8.70;4.40;;;;;;;33.49;28.87;101925.13;4898223;29;20039;-84
2021/08/27 16:15:20;;;;;;;6.53;4.53;;;;;;;33.36;28.09;101919.47;4884446;29;20684;-85
2021/08/27 16:17:46;;;;;;;7.13;4.40;;;;;;;33.02;27.81;101924.13;4894688;29;20017;-85
2021/08/27 16:20:12;;;;;;;7.90;4.30;;;;;;;32.81;28.46;101908.78;4886011;29;20032;-84
2021/08/27 16:22:38;;;;;;;6.78;4.18;;;;;;;33.00;27.66;101926.38;4878898;29;20063;-84
2021/08/27 16:25:04;;;;;;;7.07;4.97;;;;;;;32.94;27.92;101919.19;4897577;29;20115;-85
2021/08/27 16:27:30;;;;;;;9.60;5.18;;;;;;;33.03;27.52;101927.78;4915720;29;20036;-84
2021/08/27 16:29:55;;;;;;;7.00;4.45;;;;;;;33.00;26.93;101925.53;4886573;29;20056;-84
2021/08/27 16:32:21;;;;;;;7.97;4.65;;;;;;;33.12;27.18;101914.81;4897518;29;20488;-83
2021/08/27 16:34:47;;;;;;;8.05;4.50;;;;;;;33.04;27.24;101924.66;4881470;29;20107;-83
2021/08/27 16:37:12;;;;;;;7.20;4.82;;;;;;;32.38;27.79;101917.91;4858717;29;20519;-83
2021/08/27 16:39:38;;;;;;;7.15;4.40;;;;;;;31.81;29.05;101916.78;4893121;29;20035;-83
2021/08/27 16:42:05;;;;;;;7.45;4.68;;;;;;;30.40;31.89;101920.84;4884650;29;20028;-83
2021/08/27 16:44:30;;;;;;;8.07;4.85;;;;;;;29.08;34.22;101920.50;4876338;29;20387;-83
2021/08/27 16:46:56;;;;;;;9.48;5.10;;;;;;;28.18;35.69;101920.56;4884505;29;20032;-82
2021/08/27 16:49:21;;;;;;;7.30;4.88;;;;;;;27.33;37.61;101923.06;4893659;29;20028;-83
2021/08/27 16:51:47;;;;;;;8.07;5.18;;;;;;;26.85;39.00;101926.63;4897294;29;20723;-83
2021/08/27 16:54:14;;;;;;;12.48;7.30;;;;;;;26.42;39.91;101925.50;4885578;29;20032;-82
2021/08/27 16:56:43;;;;;;;8.18;4.80;;;;;;;26.17;41.09;101932.31;4866571;29;20480;-83
2021/08/27 16:59:09;;;;;;;14.32;5.65;;;;;;;25.76;41.43;101908.72;4899878;29;20654;-83
2021/08/27 17:01:35;;;;;;;31.98;17.35;;;;;;;25.69;42.00;101943.84;4891996;29;20028;-82
2021/08/27 17:04:01;;;;;;;19.30;8.60;;;;;;;25.51;42.51;101934.72;4895325;29;20510;-82
2021/08/27 17:06:26;;;;;;;18.05;7.95;;;;;;;25.45;42.42;101935.69;4875335;29;20059;-83
2021/08/27 17:08:52;;;;;;;17.05;8.07;;;;;;;25.38;42.79;101929.53;4898860;29;20028;-83